Time;durP1;ratioP1;P1;durP2;ratioP2;P2;SDS_P1;SDS_P2;PMS_P1;PMS_P2;Temp;Humidity;BMP_temperature;BMP_pressure;BME280_temperature;BME280_humidity;BME280_pressure;Samples;Min_cycle;Max_cycle;Signal;HPM_P1;HPM_P2
2022/03/06 00:00:35;;;;;;;2.67;2.07;;;;;;;;;;4997004;28;20897;-79
2022/03/06 00:03:04;;;;;;;3.07;2.17;;;;;;;;;;5014245;28;20446;-78
2022/03/06 00:05:30;;;;;;;4.90;2.00;;;;;;;;;;5014412;28;20497;-78
2022/03/06 00:07:58;;;;;;;3.17;2.33;;;;;;;;;;5014319;28;20562;-78
2022/03/06 00:10:27;;;;;;;1.53;1.40;;;;;;;;;;5014049;28;20493;-78
2022/03/06 00:12:53;;;;;;;2.70;0.93;;;;;;;;;;5013741;28;20468;-79
2022/03/06 00:15:21;;;;;;;2.50;1.40;;;;;;;;;;4996531;28;20827;-78
2022/03/06 00:17:47;;;;;;;3.23;1.10;;;;;;;;;;5014201;28;20763;-78
2022/03/06 00:20:13;;;;;;;2.07;1.63;;;;;;;;;;5013971;28;21068;-79
2022/03/06 00:22:39;;;;;;;3.47;2.20;;;;;;;;;;5014201;28;20819;-78
2022/03/06 00:25:08;;;;;;;1.70;1.30;;;;;;;;;;4996358;28;20442;-77
2022/03/06 00:27:34;;;;;;;2.10;0.80;;;;;;;;;;5013757;28;21004;-78
2022/03/06 00:30:00;;;;;;;2.43;1.40;;;;;;;;;;4996343;28;20448;-79
2022/03/06 00:32:26;;;;;;;4.17;1.77;;;;;;;;;;5013968;28;21004;-79
2022/03/06 00:34:52;;;;;;;2.63;2.00;;;;;;;;;;4996299;28;20414;-79
2022/03/06 00:37:18;;;;;;;1.43;1.20;;;;;;;;;;5013825;28;20426;-79
2022/03/06 00:39:44;;;;;;;3.70;1.70;;;;;;;;;;4996085;28;20426;-78
2022/03/06 00:42:11;;;;;;;4.13;1.80;;;;;;;;;;4995450;28;20469;-79
2022/03/06 00:44:37;;;;;;;2.67;1.80;;;;;;;;;;5007961;28;20926;-77
2022/03/06 00:47:04;;;;;;;2.30;1.17;;;;;;;;;;5005489;28;20461;-78
2022/03/06 00:49:30;;;;;;;3.50;1.00;;;;;;;;;;5013493;28;20460;-78
2022/03/06 00:51:56;;;;;;;3.67;1.70;;;;;;;;;;4995739;28;20918;-79
2022/03/06 00:54:22;;;;;;;4.07;2.00;;;;;;;;;;5013287;28;20410;-78
2022/03/06 00:56:48;;;;;;;2.70;1.87;;;;;;;;;;5012923;28;20480;-78
2022/03/06 00:59:14;;;;;;;3.20;1.40;;;;;;;;;;5011770;28;20776;-78
2022/03/06 01:01:40;;;;;;;4.07;1.93;;;;;;;;;;5013102;28;20476;-78
2022/03/06 01:04:06;;;;;;;2.57;1.97;;;;;;;;;;5013474;28;20467;-78
2022/03/06 01:06:32;;;;;;;4.97;1.90;;;;;;;;;;5013418;28;20522;-79
2022/03/06 01:09:01;;;;;;;2.43;1.17;;;;;;;;;;4995612;28;20414;-79
2022/03/06 01:11:27;;;;;;;1.83;1.47;;;;;;;;;;5012864;28;20431;-79
2022/03/06 01:13:53;;;;;;;3.90;2.50;;;;;;;;;;5013086;28;20418;-79
2022/03/06 01:16:19;;;;;;;5.30;2.37;;;;;;;;;;5013094;28;20422;-79
2022/03/06 01:18:46;;;;;;;4.03;1.93;;;;;;;;;;5013199;28;20429;-78
2022/03/06 01:21:12;;;;;;;3.40;1.30;;;;;;;;;;5013060;28;20473;-78
2022/03/06 01:23:38;;;;;;;2.10;1.90;;;;;;;;;;5012178;28;20461;-79
2022/03/06 01:26:04;;;;;;;1.93;1.47;;;;;;;;;;5012778;28;20413;-79
2022/03/06 01:28:30;;;;;;;3.30;1.80;;;;;;;;;;5012958;28;20985;-79
2022/03/06 01:30:56;;;;;;;3.57;2.00;;;;;;;;;;5012951;28;20496;-79
2022/03/06 01:33:22;;;;;;;2.83;1.03;;;;;;;;;;5012982;28;20497;-79
2022/03/06 01:35:48;;;;;;;2.70;1.53;;;;;;;;;;5012974;28;20442;-79
2022/03/06 01:38:14;;;;;;;4.43;1.83;;;;;;;;;;5012824;28;20402;-78
2022/03/06 01:40:40;;;;;;;2.43;2.07;;;;;;;;;;5012547;28;20814;-79
2022/03/06 01:43:06;;;;;;;2.57;2.10;;;;;;;;;;5012818;28;20977;-79
2022/03/06 01:45:32;;;;;;;2.33;1.77;;;;;;;;;;4995513;28;20402;-78
2022/03/06 01:47:59;;;;;;;5.13;1.70;;;;;;;;;;5013040;28;20436;-78
2022/03/06 01:50:30;;;;;;;2.67;1.43;;;;;;;;;;5013111;28;20957;-78
2022/03/06 01:52:57;;;;;;;3.60;1.97;;;;;;;;;;4995349;28;20417;-78
2022/03/06 01:55:24;;;;;;;3.90;1.50;;;;;;;;;;4994775;28;20493;-78
2022/03/06 01:57:51;;;;;;;3.33;2.27;;;;;;;;;;5012842;28;20438;-79
2022/03/06 02:00:19;;;;;;;2.17;1.60;;;;;;;;;;4995124;28;20504;-79
2022/03/06 02:02:45;;;;;;;2.63;2.20;;;;;;;;;;4994976;28;20427;-78
2022/03/06 02:05:11;;;;;;;4.00;1.50;;;;;;;;;;5012660;28;20439;-78
2022/03/06 02:07:38;;;;;;;4.53;2.10;;;;;;;;;;5012608;28;20461;-78
2022/03/06 02:10:04;;;;;;;4.70;2.63;;;;;;;;;;5012271;28;20502;-78
2022/03/06 02:12:30;;;;;;;2.77;2.07;;;;;;;;;;5012636;28;20498;-78
2022/03/06 02:14:58;;;;;;;3.47;2.17;;;;;;;;;;5012696;28;20414;-78
2022/03/06 02:17:27;;;;;;;5.17;1.97;;;;;;;;;;5012451;28;20413;-78
2022/03/06 02:20:01;;;;;;;10.00;2.73;;;;;;;;;;4994936;28;20465;-79
2022/03/06 02:22:31;;;;;;;5.13;2.67;;;;;;;;;;5012528;28;20469;-78
2022/03/06 02:24:59;;;;;;;4.53;3.00;;;;;;;;;;5012136;28;20949;-78
2022/03/06 02:27:25;;;;;;;2.80;1.83;;;;;;;;;;5012148;28;21066;-79
2022/03/06 02:29:51;;;;;;;3.80;2.53;;;;;;;;;;5005214;28;20522;-78
2022/03/06 02:32:18;;;;;;;2.50;2.00;;;;;;;;;;5004739;28;20431;-78
2022/03/06 02:34:46;;;;;;;2.10;1.40;;;;;;;;;;5013416;28;20463;-78
2022/03/06 02:37:17;;;;;;;3.80;2.40;;;;;;;;;;5016022;28;20409;-78
2022/03/06 02:39:43;;;;;;;5.03;2.00;;;;;;;;;;5016063;28;20505;-78
2022/03/06 02:42:10;;;;;;;3.23;2.87;;;;;;;;;;5015684;28;20469;-78
2022/03/06 02:44:38;;;;;;;3.80;2.73;;;;;;;;;;5015980;28;20407;-78
2022/03/06 02:47:04;;;;;;;2.47;1.50;;;;;;;;;;5015864;28;20890;-78
2022/03/06 02:49:31;;;;;;;2.50;1.93;;;;;;;;;;5015745;28;20501;-78
2022/03/06 02:51:56;;;;;;;4.07;2.37;;;;;;;;;;5015632;28;20596;-78
2022/03/06 02:54:22;;;;;;;6.17;2.80;;;;;;;;;;4998007;28;20422;-78
2022/03/06 02:56:49;;;;;;;2.70;2.27;;;;;;;;;;4997659;28;20429;-78
2022/03/06 02:59:15;;;;;;;5.70;2.53;;;;;;;;;;5015757;28;20906;-78
2022/03/06 03:01:41;;;;;;;4.10;2.53;;;;;;;;;;5015342;28;20473;-78
2022/03/06 03:04:08;;;;;;;2.73;2.53;;;;;;;;;;5015520;28;20505;-77
2022/03/06 03:06:34;;;;;;;3.80;2.27;;;;;;;;;;5015586;28;20422;-77
2022/03/06 03:09:00;;;;;;;3.20;2.43;;;;;;;;;;5015501;28;20441;-78
2022/03/06 03:11:26;;;;;;;3.13;2.70;;;;;;;;;;5015066;28;20927;-78
2022/03/06 03:13:52;;;;;;;4.50;2.00;;;;;;;;;;5015358;28;20508;-78
2022/03/06 03:16:18;;;;;;;3.53;1.50;;;;;;;;;;5015332;28;20457;-77
2022/03/06 03:18:53;;;;;;;4.40;2.40;;;;;;;;;;5015248;28;20827;-78
2022/03/06 03:21:19;;;;;;;5.83;1.60;;;;;;;;;;5015223;28;20844;-78
2022/03/06 03:23:45;;;;;;;2.77;2.37;;;;;;;;;;5015087;28;20439;-78
2022/03/06 03:26:11;;;;;;;4.37;2.60;;;;;;;;;;5013441;28;20467;-78
2022/03/06 03:28:37;;;;;;;5.40;3.20;;;;;;;;;;5014398;28;20824;-77
2022/03/06 03:31:06;;;;;;;3.20;2.67;;;;;;;;;;4997539;28;20434;-78
2022/03/06 03:33:31;;;;;;;5.23;1.80;;;;;;;;;;5014972;28;20412;-78
2022/03/06 03:35:57;;;;;;;2.70;2.50;;;;;;;;;;5015102;28;20422;-78
2022/03/06 03:38:23;;;;;;;4.00;1.93;;;;;;;;;;4997521;28;20937;-78
2022/03/06 03:40:49;;;;;;;3.90;2.00;;;;;;;;;;5011520;28;20469;-78
2022/03/06 03:43:15;;;;;;;6.07;4.07;;;;;;;;;;4996745;28;20426;-78
2022/03/06 03:45:41;;;;;;;2.97;2.40;;;;;;;;;;4995247;28;20989;-78
2022/03/06 03:48:07;;;;;;;3.30;2.13;;;;;;;;;;5013567;28;20428;-78
2022/03/06 03:50:36;;;;;;;5.00;2.40;;;;;;;;;;5014766;28;20452;-78
2022/03/06 03:53:01;;;;;;;3.80;2.63;;;;;;;;;;4997074;28;20427;-78
2022/03/06 03:55:27;;;;;;;3.00;2.47;;;;;;;;;;4996775;28;20833;-78
2022/03/06 03:57:53;;;;;;;4.33;2.37;;;;;;;;;;5014793;28;20929;-78
2022/03/06 04:00:19;;;;;;;3.97;2.80;;;;;;;;;;4997044;28;20437;-78
2022/03/06 04:02:45;;;;;;;3.37;2.40;;;;;;;;;;5014727;28;21012;-78
2022/03/06 04:05:11;;;;;;;4.00;2.63;;;;;;;;;;5014567;28;20410;-78
2022/03/06 04:07:37;;;;;;;5.30;2.10;;;;;;;;;;5014324;28;20429;-78
2022/03/06 04:10:03;;;;;;;3.17;2.50;;;;;;;;;;5014005;28;20907;-77
2022/03/06 04:12:29;;;;;;;2.60;2.30;;;;;;;;;;5014239;28;20577;-78
2022/03/06 04:14:55;;;;;;;5.43;2.40;;;;;;;;;;5014481;28;20958;-78
2022/03/06 04:17:21;;;;;;;2.93;2.13;;;;;;;;;;5014393;28;20445;-78
2022/03/06 04:19:47;;;;;;;5.03;2.70;;;;;;;;;;5014137;28;20501;-78
2022/03/06 04:22:13;;;;;;;2.63;1.80;;;;;;;;;;5014182;28;21044;-78
2022/03/06 04:24:44;;;;;;;2.70;2.50;;;;;;;;;;4996169;28;20513;-78
2022/03/06 04:27:10;;;;;;;5.30;2.77;;;;;;;;;;5013855;28;20467;-79
2022/03/06 04:29:36;;;;;;;2.60;1.70;;;;;;;;;;5014023;28;20406;-78
2022/03/06 04:32:03;;;;;;;2.67;2.47;;;;;;;;;;5014004;28;20429;-78
2022/03/06 04:34:32;;;;;;;3.50;2.30;;;;;;;;;;5014002;28;20417;-78
2022/03/06 04:36:58;;;;;;;3.47;2.30;;;;;;;;;;4996471;28;20418;-77
2022/03/06 04:39:24;;;;;;;5.23;1.77;;;;;;;;;;4996088;28;20533;-77
2022/03/06 04:41:53;;;;;;;3.17;2.67;;;;;;;;;;5013779;28;20474;-77
2022/03/06 04:44:19;;;;;;;6.23;2.57;;;;;;;;;;5014062;28;20410;-78
2022/03/06 04:46:46;;;;;;;5.67;1.97;;;;;;;;;;4996339;28;20426;-77
2022/03/06 04:49:12;;;;;;;3.97;2.73;;;;;;;;;;5013719;28;20913;-78
2022/03/06 04:51:38;;;;;;;2.57;1.90;;;;;;;;;;4996126;28;20438;-77
2022/03/06 04:54:04;;;;;;;4.40;1.90;;;;;;;;;;5013878;28;20405;-78
2022/03/06 04:56:30;;;;;;;2.90;2.50;;;;;;;;;;5013466;28;20418;-78
2022/03/06 04:58:56;;;;;;;4.47;2.57;;;;;;;;;;5013531;28;20815;-78
2022/03/06 05:01:22;;;;;;;2.77;2.47;;;;;;;;;;5013522;28;20501;-78
2022/03/06 05:03:48;;;;;;;2.93;2.20;;;;;;;;;;5013585;28;20403;-77
2022/03/06 05:06:14;;;;;;;2.80;2.40;;;;;;;;;;5013469;28;20408;-77
2022/03/06 05:08:40;;;;;;;3.50;3.20;;;;;;;;;;5013421;28;20412;-78
2022/03/06 05:11:06;;;;;;;2.83;1.73;;;;;;;;;;5013236;28;20825;-78
2022/03/06 05:13:32;;;;;;;3.10;1.60;;;;;;;;;;5013547;28;20406;-78
2022/03/06 05:15:58;;;;;;;3.77;2.80;;;;;;;;;;5013198;28;20500;-78
2022/03/06 05:18:24;;;;;;;2.67;1.87;;;;;;;;;;5013261;28;20778;-78
2022/03/06 05:20:50;;;;;;;2.33;2.03;;;;;;;;;;5013157;28;20612;-78
2022/03/06 05:23:17;;;;;;;2.67;1.73;;;;;;;;;;5013167;28;20567;-78
2022/03/06 05:25:43;;;;;;;2.20;1.70;;;;;;;;;;5012900;28;20505;-78
2022/03/06 05:28:12;;;;;;;2.67;2.33;;;;;;;;;;5012972;28;20561;-78
2022/03/06 05:30:38;;;;;;;3.50;2.47;;;;;;;;;;4995433;28;20914;-79
2022/03/06 05:33:04;;;;;;;5.30;1.77;;;;;;;;;;5013039;28;20466;-79
2022/03/06 05:35:30;;;;;;;3.83;1.77;;;;;;;;;;5013088;28;20406;-78
2022/03/06 05:37:56;;;;;;;4.63;1.80;;;;;;;;;;5013073;28;20440;-78
2022/03/06 05:40:22;;;;;;;2.50;1.50;;;;;;;;;;4995008;28;20426;-78
2022/03/06 05:42:48;;;;;;;3.60;2.40;;;;;;;;;;5013086;28;20459;-77
2022/03/06 05:45:14;;;;;;;4.60;1.50;;;;;;;;;;5012973;28;20406;-77
2022/03/06 05:47:41;;;;;;;3.10;1.30;;;;;;;;;;5012982;28;20414;-77
2022/03/06 05:50:07;;;;;;;3.47;1.80;;;;;;;;;;5012952;28;20775;-78
2022/03/06 05:52:33;;;;;;;3.17;2.57;;;;;;;;;;5012838;28;20518;-78
2022/03/06 05:55:00;;;;;;;2.07;1.53;;;;;;;;;;5012548;28;20416;-77
2022/03/06 05:57:25;;;;;;;2.80;1.37;;;;;;;;;;5012908;28;20909;-78
2022/03/06 05:59:52;;;;;;;2.33;1.80;;;;;;;;;;4995227;28;20419;-78
2022/03/06 06:02:19;;;;;;;3.63;2.00;;;;;;;;;;5012854;28;20867;-78
2022/03/06 06:04:45;;;;;;;3.47;2.50;;;;;;;;;;4995140;28;20418;-77
2022/03/06 06:07:11;;;;;;;5.10;2.30;;;;;;;;;;5012791;28;20414;-77
2022/03/06 06:09:37;;;;;;;4.53;1.87;;;;;;;;;;5013205;28;20460;-78
2022/03/06 06:12:04;;;;;;;1.83;1.70;;;;;;;;;;5016851;28;20496;-77
2022/03/06 06:14:30;;;;;;;8.43;2.20;;;;;;;;;;4998939;28;20475;-77
2022/03/06 06:16:56;;;;;;;2.27;1.50;;;;;;;;;;5016525;28;20413;-78
2022/03/06 06:19:22;;;;;;;3.53;2.47;;;;;;;;;;4998775;28;20493;-77
2022/03/06 06:21:48;;;;;;;1.73;1.57;;;;;;;;;;5016201;28;20823;-77
2022/03/06 06:24:14;;;;;;;6.20;2.17;;;;;;;;;;5015976;28;20427;-78
2022/03/06 06:26:45;;;;;;;7.77;2.00;;;;;;;;;;5016056;28;20495;-77
2022/03/06 06:29:12;;;;;;;2.17;2.00;;;;;;;;;;5015050;28;20426;-78
2022/03/06 06:31:39;;;;;;;5.93;1.87;;;;;;;;;;5014724;28;20772;-78
2022/03/06 06:34:04;;;;;;;2.80;1.67;;;;;;;;;;4997462;28;20421;-77
2022/03/06 06:36:30;;;;;;;2.17;1.67;;;;;;;;;;5014937;28;20409;-78
2022/03/06 06:38:56;;;;;;;4.43;1.73;;;;;;;;;;5014874;28;20420;-78
2022/03/06 06:41:23;;;;;;;2.90;1.87;;;;;;;;;;5014175;28;20573;-78
2022/03/06 06:43:49;;;;;;;3.83;2.57;;;;;;;;;;5014791;28;20802;-78
2022/03/06 06:46:15;;;;;;;4.43;2.00;;;;;;;;;;4997044;28;20418;-78
2022/03/06 06:48:41;;;;;;;1.83;1.50;;;;;;;;;;4997064;28;20491;-78
2022/03/06 06:51:08;;;;;;;2.27;2.07;;;;;;;;;;5014828;28;20460;-78
2022/03/06 06:53:40;;;;;;;2.97;1.27;;;;;;;;;;5014606;28;20410;-78
2022/03/06 06:56:06;;;;;;;2.20;2.00;;;;;;;;;;5014303;28;20416;-78
2022/03/06 06:58:35;;;;;;;3.30;1.43;;;;;;;;;;5014608;28;20413;-78
2022/03/06 07:01:01;;;;;;;4.90;2.67;;;;;;;;;;5014284;28;20473;-78
2022/03/06 07:03:27;;;;;;;5.53;2.80;;;;;;;;;;5014303;28;20410;-78
2022/03/06 07:05:55;;;;;;;4.13;2.03;;;;;;;;;;5014151;28;20412;-78
2022/03/06 07:08:21;;;;;;;2.87;1.73;;;;;;;;;;5014515;28;20803;-78
2022/03/06 07:10:47;;;;;;;3.57;2.53;;;;;;;;;;5014010;28;20497;-78
2022/03/06 07:13:13;;;;;;;3.10;2.10;;;;;;;;;;4996840;28;20422;-78
2022/03/06 07:15:39;;;;;;;2.50;2.30;;;;;;;;;;5014456;28;20425;-78
2022/03/06 07:18:05;;;;;;;3.90;2.73;;;;;;;;;;4996663;28;20440;-77
2022/03/06 07:20:32;;;;;;;3.10;2.60;;;;;;;;;;5013603;28;20410;-78
2022/03/06 07:22:58;;;;;;;2.50;1.37;;;;;;;;;;5013657;28;20421;-78
2022/03/06 07:25:24;;;;;;;4.23;2.00;;;;;;;;;;4996193;28;20416;-78
2022/03/06 07:27:50;;;;;;;2.20;1.60;;;;;;;;;;4978700;28;1008880;-78
2022/03/06 07:30:16;;;;;;;5.60;3.60;;;;;;;;;;5014738;28;20171;-77
2022/03/06 07:32:50;;;;;;;4.90;2.57;;;;;;;;;;5015132;28;20575;-77
2022/03/06 07:35:16;;;;;;;2.87;2.43;;;;;;;;;;5015233;28;20413;-78
2022/03/06 07:37:43;;;;;;;5.10;2.43;;;;;;;;;;5014870;28;20407;-80
2022/03/06 07:40:10;;;;;;;2.13;1.80;;;;;;;;;;5014773;28;20548;-78
2022/03/06 07:42:36;;;;;;;1.67;1.57;;;;;;;;;;5015080;28;20468;-77
2022/03/06 07:45:03;;;;;;;2.93;2.17;;;;;;;;;;5014978;28;20766;-78
2022/03/06 07:47:29;;;;;;;2.33;1.20;;;;;;;;;;5014721;28;20943;-78
2022/03/06 07:49:55;;;;;;;2.40;1.77;;;;;;;;;;5014476;28;20895;-79
2022/03/06 07:52:22;;;;;;;2.80;2.10;;;;;;;;;;5014656;28;20419;-79
2022/03/06 07:54:48;;;;;;;4.07;1.90;;;;;;;;;;5014267;28;20417;-78
2022/03/06 07:57:14;;;;;;;2.80;1.23;;;;;;;;;;5014671;28;20413;-78
2022/03/06 07:59:40;;;;;;;2.23;1.50;;;;;;;;;;5014693;28;20409;-78
2022/03/06 08:02:06;;;;;;;3.67;1.60;;;;;;;;;;5014357;28;20567;-78
2022/03/06 08:04:32;;;;;;;4.57;2.23;;;;;;;;;;5014538;28;20409;-79
2022/03/06 08:06:58;;;;;;;1.83;1.40;;;;;;;;;;5014444;28;20406;-80
2022/03/06 08:09:24;;;;;;;3.43;2.30;;;;;;;;;;5013996;28;20459;-79
2022/03/06 08:11:51;;;;;;;1.90;1.50;;;;;;;;;;4996695;28;20422;-79
2022/03/06 08:14:20;;;;;;;2.43;1.33;;;;;;;;;;5014385;28;20906;-78
2022/03/06 08:16:46;;;;;;;2.23;1.87;;;;;;;;;;5014480;28;20933;-80
2022/03/06 08:19:12;;;;;;;2.67;1.57;;;;;;;;;;4996606;28;20872;-81
2022/03/06 08:21:44;;;;;;;2.10;1.37;;;;;;;;;;5014239;28;20981;-78
2022/03/06 08:24:10;;;;;;;4.53;2.20;;;;;;;;;;5013701;28;20406;-81
2022/03/06 08:26:36;;;;;;;4.00;2.00;;;;;;;;;;5013915;28;20405;-78
2022/03/06 08:29:02;;;;;;;3.80;1.40;;;;;;;;;;4996267;28;20462;-78
2022/03/06 08:31:27;;;;;;;2.30;1.30;;;;;;;;;;5013851;28;20980;-79
2022/03/06 08:33:54;;;;;;;2.20;1.90;;;;;;;;;;5013520;28;20475;-79
2022/03/06 08:36:20;;;;;;;1.63;1.50;;;;;;;;;;5013922;28;20764;-79
2022/03/06 08:38:46;;;;;;;3.27;1.63;;;;;;;;;;5013147;28;20476;-79
2022/03/06 08:41:13;;;;;;;2.53;1.90;;;;;;;;;;4994840;28;20477;-78
2022/03/06 08:43:39;;;;;;;2.50;2.13;;;;;;;;;;5012645;28;20468;-79
2022/03/06 08:46:05;;;;;;;3.43;1.70;;;;;;;;;;5013808;28;20419;-79
2022/03/06 08:48:31;;;;;;;2.37;2.10;;;;;;;;;;5013889;28;20497;-79
2022/03/06 08:50:57;;;;;;;4.53;1.97;;;;;;;;;;5013594;28;20461;-79
2022/03/06 08:53:23;;;;;;;2.73;2.03;;;;;;;;;;5013675;28;20478;-79
2022/03/06 08:55:49;;;;;;;4.10;2.20;;;;;;;;;;5013234;28;20772;-79
2022/03/06 08:58:15;;;;;;;3.27;1.60;;;;;;;;;;5013522;28;20447;-79
2022/03/06 09:00:41;;;;;;;2.20;1.33;;;;;;;;;;5013364;28;20467;-79
2022/03/06 09:03:07;;;;;;;2.40;1.60;;;;;;;;;;5013525;28;20455;-79
2022/03/06 09:05:38;;;;;;;4.10;1.30;;;;;;;;;;5013628;28;20416;-80
2022/03/06 09:08:04;;;;;;;2.30;1.87;;;;;;;;;;5013666;28;20560;-78
2022/03/06 09:10:30;;;;;;;2.57;1.70;;;;;;;;;;5013023;28;20422;-78
2022/03/06 09:13:00;;;;;;;1.90;1.07;;;;;;;;;;5013370;28;20410;-80
2022/03/06 09:15:26;;;;;;;1.50;1.40;;;;;;;;;;5013393;28;20513;-80
2022/03/06 09:17:52;;;;;;;2.00;1.10;;;;;;;;;;5013361;28;20486;-80
2022/03/06 09:20:18;;;;;;;2.60;1.27;;;;;;;;;;5013261;28;20444;-78
2022/03/06 09:22:45;;;;;;;2.60;1.10;;;;;;;;;;5013224;28;20865;-78
2022/03/06 09:25:11;;;;;;;1.70;1.13;;;;;;;;;;5012882;28;20472;-78
2022/03/06 09:27:37;;;;;;;2.30;1.07;;;;;;;;;;4995438;28;20473;-78
2022/03/06 09:30:04;;;;;;;2.50;1.57;;;;;;;;;;5013122;28;20841;-78
2022/03/06 09:32:30;;;;;;;6.27;2.20;;;;;;;;;;5013064;28;20561;-78
2022/03/06 09:34:56;;;;;;;1.37;1.27;;;;;;;;;;5013228;28;20474;-78
2022/03/06 09:37:22;;;;;;;1.53;1.20;;;;;;;;;;5013183;28;20405;-80
2022/03/06 09:39:48;;;;;;;2.57;0.90;;;;;;;;;;5012838;28;20743;-80
2022/03/06 09:42:16;;;;;;;1.30;1.13;;;;;;;;;;5013176;28;20605;-78
2022/03/06 09:44:44;;;;;;;1.57;1.10;;;;;;;;;;5013947;28;20406;-78
2022/03/06 09:47:10;;;;;;;5.03;1.30;;;;;;;;;;5017285;28;20452;-78
2022/03/06 09:49:36;;;;;;;1.60;1.10;;;;;;;;;;4999502;28;20422;-78
2022/03/06 09:52:03;;;;;;;1.47;0.60;;;;;;;;;;5017067;28;20520;-78
2022/03/06 09:54:29;;;;;;;2.50;1.47;;;;;;;;;;5016506;28;20526;-78
2022/03/06 09:56:55;;;;;;;4.03;1.70;;;;;;;;;;4999296;28;20869;-78
2022/03/06 09:59:21;;;;;;;2.20;1.43;;;;;;;;;;4996007;28;20276;-78
2022/03/06 10:01:47;;;;;;;2.30;1.50;;;;;;;;;;4998510;28;20587;-78
2022/03/06 10:04:20;;;;;;;1.53;1.20;;;;;;;;;;5016654;28;20412;-78
2022/03/06 10:06:59;;;;;;;2.67;1.37;;;;;;;;;;5016420;28;20420;-80
2022/03/06 10:09:25;;;;;;;2.03;1.00;;;;;;;;;;4998279;28;20486;-80
2022/03/06 10:11:54;;;;;;;2.97;1.23;;;;;;;;;;5016373;28;20818;-81
2022/03/06 10:14:39;;;;;;;1.20;0.83;;;;;;;;;;5016555;28;20487;-80
2022/03/06 10:17:18;;;;;;;1.27;1.17;;;;;;;;;;5015798;28;20467;-81
2022/03/06 10:19:48;;;;;;;2.63;1.63;;;;;;;;;;5016381;28;20892;-80
2022/03/06 10:22:14;;;;;;;1.80;1.20;;;;;;;;;;5015924;28;20480;-79
2022/03/06 10:24:50;;;;;;;2.07;1.50;;;;;;;;;;5015750;28;20412;-78
2022/03/06 10:27:16;;;;;;;2.60;1.67;;;;;;;;;;4998202;28;20611;-78
2022/03/06 10:29:43;;;;;;;3.57;1.30;;;;;;;;;;4998488;28;20414;-78
2022/03/06 10:32:09;;;;;;;2.97;0.80;;;;;;;;;;5016105;28;20401;-80
2022/03/06 10:34:36;;;;;;;4.30;1.10;;;;;;;;;;5016157;28;20406;-80
2022/03/06 10:37:02;;;;;;;2.00;0.60;;;;;;;;;;5016031;28;20409;-80
2022/03/06 10:39:29;;;;;;;2.17;1.17;;;;;;;;;;5015545;28;20393;-80
2022/03/06 10:41:56;;;;;;;3.03;1.40;;;;;;;;;;4998204;28;20522;-80
2022/03/06 10:44:42;;;;;;;1.83;1.13;;;;;;;;;;5015829;28;20450;-80
2022/03/06 10:47:08;;;;;;;1.30;0.67;;;;;;;;;;5009930;28;20476;-81
2022/03/06 10:49:34;;;;;;;1.70;1.37;;;;;;;;;;5009425;28;20422;-80
2022/03/06 10:52:20;;;;;;;1.90;1.40;;;;;;;;;;5015389;28;20415;-80
2022/03/06 10:54:53;;;;;;;1.80;1.00;;;;;;;;;;5015416;28;20412;-79
2022/03/06 10:57:23;;;;;;;1.70;1.60;;;;;;;;;;5015282;28;20496;-79
2022/03/06 10:59:49;;;;;;;2.03;1.53;;;;;;;;;;5015543;28;20418;-79
2022/03/06 11:02:15;;;;;;;1.57;1.23;;;;;;;;;;5015277;28;20488;-79
2022/03/06 11:04:42;;;;;;;5.07;1.93;;;;;;;;;;5015346;28;20499;-79
2022/03/06 11:07:09;;;;;;;4.03;1.67;;;;;;;;;;5015279;28;20951;-79
2022/03/06 11:09:35;;;;;;;1.77;1.40;;;;;;;;;;5015083;28;20929;-79
2022/03/06 11:12:02;;;;;;;2.63;1.80;;;;;;;;;;5015454;28;20420;-79
2022/03/06 11:14:28;;;;;;;2.33;1.30;;;;;;;;;;5013558;28;20417;-80
2022/03/06 11:16:55;;;;;;;1.83;1.20;;;;;;;;;;4997568;28;20444;-79
2022/03/06 11:19:21;;;;;;;4.27;1.77;;;;;;;;;;5015263;28;20404;-79
2022/03/06 11:21:50;;;;;;;1.83;1.27;;;;;;;;;;5015245;28;20473;-79
2022/03/06 11:24:26;;;;;;;3.57;1.57;;;;;;;;;;5014882;28;20414;-79
2022/03/06 11:26:55;;;;;;;3.40;1.90;;;;;;;;;;4997516;28;20777;-79
2022/03/06 11:29:38;;;;;;;2.37;1.43;;;;;;;;;;5015232;28;20462;-79
2022/03/06 11:32:05;;;;;;;2.00;1.30;;;;;;;;;;5015025;28;20426;-79
2022/03/06 11:34:36;;;;;;;1.40;1.20;;;;;;;;;;5015100;28;20404;-79
2022/03/06 11:37:12;;;;;;;2.07;1.20;;;;;;;;;;5015059;28;20433;-79
2022/03/06 11:39:38;;;;;;;1.70;1.37;;;;;;;;;;5012841;28;20419;-78
2022/03/06 11:42:06;;;;;;;2.67;1.50;;;;;;;;;;4996852;28;20484;-79
2022/03/06 11:44:36;;;;;;;1.70;1.27;;;;;;;;;;5014697;28;20457;-79
2022/03/06 11:47:22;;;;;;;1.97;1.20;;;;;;;;;;5014638;28;20402;-79
2022/03/06 11:49:55;;;;;;;1.57;1.30;;;;;;;;;;5014502;28;20766;-79
2022/03/06 11:52:25;;;;;;;4.60;3.17;;;;;;;;;;5014801;28;20495;-79
2022/03/06 11:54:51;;;;;;;2.63;1.37;;;;;;;;;;5014133;28;20835;-79
2022/03/06 11:57:35;;;;;;;2.60;1.67;;;;;;;;;;5014582;28;20402;-80
2022/03/06 12:00:24;;;;;;;3.77;1.90;;;;;;;;;;4996648;28;20171;-79
2022/03/06 12:03:01;;;;;;;2.93;1.77;;;;;;;;;;5014049;28;20830;-80
2022/03/06 12:05:45;;;;;;;1.90;1.70;;;;;;;;;;5014280;28;20450;-80
2022/03/06 12:08:11;;;;;;;3.33;1.93;;;;;;;;;;5002357;28;20413;-79
2022/03/06 12:10:40;;;;;;;3.00;1.90;;;;;;;;;;5014474;28;20412;-85
2022/03/06 12:13:16;;;;;;;2.93;1.63;;;;;;;;;;4992399;28;20428;-86
2022/03/06 12:15:42;;;;;;;4.53;2.17;;;;;;;;;;5012977;28;20773;-88
2022/03/06 12:18:17;;;;;;;2.50;2.30;;;;;;;;;;5013405;28;20462;-87
2022/03/06 12:20:43;;;;;;;3.23;1.80;;;;;;;;;;5012974;28;20409;-88
2022/03/06 12:23:20;;;;;;;2.40;1.20;;;;;;;;;;5012874;28;20428;-87
2022/03/06 12:25:50;;;;;;;1.63;1.03;;;;;;;;;;4996231;28;20418;-87
2022/03/06 12:28:19;;;;;;;3.40;1.90;;;;;;;;;;4995350;28;20992;-85
2022/03/06 12:30:46;;;;;;;3.47;2.03;;;;;;;;;;4995695;28;20516;-89
2022/03/06 12:33:32;;;;;;;3.23;1.80;;;;;;;;;;4995169;28;20991;-84
2022/03/06 12:36:16;;;;;;;2.60;1.83;;;;;;;;;;5013150;28;20440;-87
2022/03/06 12:38:45;;;;;;;2.90;1.27;;;;;;;;;;5012691;28;20512;-85
2022/03/06 12:41:12;;;;;;;2.30;1.47;;;;;;;;;;5013445;28;20482;-87
2022/03/06 12:43:40;;;;;;;3.30;1.43;;;;;;;;;;4995492;28;20444;-86
2022/03/06 12:46:06;;;;;;;3.07;2.40;;;;;;;;;;5012330;28;20464;-86
2022/03/06 12:48:32;;;;;;;6.67;4.30;;;;;;;;;;5012213;28;20421;-88
2022/03/06 12:50:58;;;;;;;3.50;2.80;;;;;;;;;;5010808;28;20265;-84
2022/03/06 12:53:24;;;;;;;2.93;2.23;;;;;;;;;;4994509;28;20438;-85
2022/03/06 12:55:59;;;;;;;2.83;2.13;;;;;;;;;;5012450;28;20199;-87
2022/03/06 12:58:38;;;;;;;3.40;1.83;;;;;;;;;;5012663;28;20207;-84
2022/03/06 13:01:08;;;;;;;3.90;1.47;;;;;;;;;;5012469;28;20474;-87
2022/03/06 13:03:34;;;;;;;4.43;2.30;;;;;;;;;;5013058;28;20987;-88
2022/03/06 13:06:13;;;;;;;4.07;2.17;;;;;;;;;;5012489;28;20424;-86
2022/03/06 13:08:40;;;;;;;3.03;1.80;;;;;;;;;;5012504;28;20791;-89
2022/03/06 13:11:07;;;;;;;1.93;1.23;;;;;;;;;;5013629;28;20422;-88
2022/03/06 13:13:34;;;;;;;3.40;1.77;;;;;;;;;;5012946;28;20449;-84
2022/03/06 13:16:00;;;;;;;3.47;2.10;;;;;;;;;;5012628;28;20930;-85
2022/03/06 13:18:32;;;;;;;2.87;1.70;;;;;;;;;;5012691;28;20551;-87
2022/03/06 13:20:58;;;;;;;3.67;1.53;;;;;;;;;;5012406;28;20495;-89
2022/03/06 13:23:24;;;;;;;4.10;1.67;;;;;;;;;;5013158;28;20423;-89
2022/03/06 13:25:50;;;;;;;4.30;2.60;;;;;;;;;;5014313;28;20429;-89
2022/03/06 13:28:16;;;;;;;2.90;1.90;;;;;;;;;;5012075;28;20461;-88
2022/03/06 13:30:43;;;;;;;3.13;2.23;;;;;;;;;;5013080;28;20461;-87
2022/03/06 13:33:09;;;;;;;2.20;2.00;;;;;;;;;;5012410;28;20409;-85
2022/03/06 13:35:42;;;;;;;3.97;2.70;;;;;;;;;;5012439;28;20422;-85
2022/03/06 13:38:09;;;;;;;3.03;1.90;;;;;;;;;;5012649;28;20546;-90
2022/03/06 13:40:39;;;;;;;2.27;1.80;;;;;;;;;;5013208;28;20466;-89
2022/03/06 13:43:06;;;;;;;3.90;2.50;;;;;;;;;;5013707;28;20963;-87
2022/03/06 13:45:32;;;;;;;2.30;1.83;;;;;;;;;;4996095;28;20424;-87
2022/03/06 13:48:00;;;;;;;2.43;1.70;;;;;;;;;;5012617;28;20435;-89
2022/03/06 13:50:41;;;;;;;3.60;1.87;;;;;;;;;;5013014;28;20897;-79
2022/03/06 13:53:09;;;;;;;3.40;1.47;;;;;;;;;;5012250;28;20409;-78
2022/03/06 13:55:36;;;;;;;3.70;1.50;;;;;;;;;;5012589;28;20414;-78
2022/03/06 13:58:15;;;;;;;3.97;2.07;;;;;;;;;;5012630;28;20464;-79
2022/03/06 14:00:42;;;;;;;4.80;2.00;;;;;;;;;;4995034;28;20795;-79
2022/03/06 14:03:13;;;;;;;7.33;4.90;;;;;;;;;;5012658;28;20429;-79
2022/03/06 14:05:40;;;;;;;3.13;2.20;;;;;;;;;;5012620;28;20416;-79
2022/03/06 14:08:21;;;;;;;4.03;1.87;;;;;;;;;;5010503;28;20422;-79
2022/03/06 14:10:51;;;;;;;3.20;2.90;;;;;;;;;;5012368;28;20922;-78
2022/03/06 14:13:21;;;;;;;3.57;2.70;;;;;;;;;;5012460;28;20471;-78
2022/03/06 14:15:47;;;;;;;4.70;2.60;;;;;;;;;;5011217;28;20410;-79
2022/03/06 14:18:29;;;;;;;4.20;2.20;;;;;;;;;;5012690;28;20506;-79
2022/03/06 14:20:55;;;;;;;3.80;2.20;;;;;;;;;;5012881;28;20546;-79
2022/03/06 14:23:21;;;;;;;4.10;2.20;;;;;;;;;;4994874;28;20942;-78
2022/03/06 14:25:47;;;;;;;8.90;2.80;;;;;;;;;;4990867;28;20483;-79
2022/03/06 14:28:13;;;;;;;6.43;2.67;;;;;;;;;;5004908;28;20466;-78
2022/03/06 14:30:39;;;;;;;4.10;2.30;;;;;;;;;;5013430;28;20424;-78
2022/03/06 14:33:10;;;;;;;2.87;1.70;;;;;;;;;;4998515;28;20416;-78
2022/03/06 14:35:36;;;;;;;3.83;1.50;;;;;;;;;;5015720;28;20455;-78
2022/03/06 14:38:02;;;;;;;3.50;2.03;;;;;;;;;;4998186;28;20421;-78
2022/03/06 14:40:27;;;;;;;2.80;1.90;;;;;;;;;;4990904;28;20440;-78
2022/03/06 14:42:53;;;;;;;2.83;2.00;;;;;;;;;;4987771;28;20473;-78
2022/03/06 14:45:19;;;;;;;5.00;1.93;;;;;;;;;;4995015;28;20428;-78